Terminal Aerodrome Forecast
Issued by NWS

Home | Current Version | Previous Version | Text Only | Print | Product List | Glossary On
Versions: 1 2 3 4 5 6 7 8 9 10 11 12 13 14 15
283
FTUS43 KGRB 040525
TAFMTW
TAF
KMTW 040525Z 0406/0506 29010KT P6SM -SHSN SCT025 OVC035
     FM041000 28006KT P6SM BKN035
     FM041300 26005KT P6SM SCT040
     FM042200 21005KT P6SM BKN035
     FM050100 22004KT 3SM -SN OVC025=

USA.gov is the U.S. government's official web portal to all federal, state and local government web resources and services.